Time;durP1;ratioP1;P1;durP2;ratioP2;P2;SDS_P1;SDS_P2;PMS_P1;PMS_P2;Temp;Humidity;BMP_temperature;BMP_pressure;BME280_temperature;BME280_humidity;BME280_pressure;Samples;Min_cycle;Max_cycle;Signal;HPM_P1;HPM_P2
2024/04/10 00:00:59;;;;;;;;;13.50;13.50;;;;;10.84;59.36;102457.59;2218191;25;1852738;-74
2024/04/10 00:02:10;;;;;;;;;15.33;15.33;;;;;10.79;59.84;102455.84;2191956;25;3563798;-74
2024/04/10 00:03:22;;;;;;;;;15.25;13.25;;;;;10.83;59.92;102461.97;2179619;25;1872611;-74
2024/04/10 00:04:33;;;;;;;;;11.50;11.50;;;;;10.84;59.49;102468.97;2204605;25;2803375;-74
2024/04/10 00:05:45;;;;;;;;;11.33;10.67;;;;;10.82;59.51;102459.34;2169573;25;3524117;-74
2024/04/10 00:06:56;;;;;;;;;12.33;12.00;;;;;10.80;59.48;102457.59;2163675;25;3541935;-74
2024/04/10 00:08:07;;;;;;;;;17.00;14.00;;;;;10.82;59.51;102467.22;2164347;25;2827618;-74
2024/04/10 00:09:18;;;;;;;;;13.50;12.00;;;;;10.80;59.22;102468.13;2163966;25;2821015;-74
2024/04/10 00:10:29;;;;;;;;;16.00;16.00;;;;;10.76;59.07;102455.88;2166562;25;3568969;-74
2024/04/10 00:11:42;;;;;;;;;15.00;14.50;;;;;10.77;60.16;102457.63;2179447;25;1880506;-74
2024/04/10 00:12:54;;;;;;;;;13.50;13.50;;;;;10.77;60.36;102462.00;2200684;25;2813743;-74
2024/04/10 00:14:05;;;;;;;;;18.00;12.50;;;;;10.74;60.05;102460.25;2180325;25;2830417;-73
2024/04/10 00:15:17;;;;;;;;;16.33;14.67;;;;;10.70;59.17;102455.91;2163839;25;3550129;-73
2024/04/10 00:16:29;;;;;;;;;16.00;15.50;;;;;10.72;59.73;102464.66;2166735;25;1876395;-74
2024/04/10 00:17:41;;;;;;;;;14.75;10.75;;;;;10.72;59.70;102464.66;2204541;25;1881492;-74
2024/04/10 00:18:52;;;;;;;;;14.00;13.00;;;;;10.71;59.65;102468.19;2205617;25;2823063;-73
2024/04/10 00:20:03;;;;;;;;;15.67;13.33;;;;;10.70;60.44;102466.44;2178945;25;3552280;-73
2024/04/10 00:21:16;;;;;;;;;15.00;14.50;;;;;10.68;60.45;102474.34;2180369;25;2818968;-74
2024/04/10 00:22:27;;;;;;;;;12.50;12.50;;;;;10.67;59.40;102471.69;2180385;25;2817946;-74
2024/04/10 00:23:39;;;;;;;;;13.00;13.00;;;;;10.67;59.81;102467.31;2178540;25;3543906;-74
2024/04/10 00:24:53;;;;;;;;;19.50;16.50;;;;;10.68;59.48;102473.44;2181823;25;2841882;-74
2024/04/10 00:26:04;;;;;;;;;16.33;13.00;;;;;10.69;60.18;102478.69;2181406;25;3562683;-74
2024/04/10 00:27:18;;;;;;;;;10.33;10.33;;;;;10.68;60.03;102478.72;2212101;25;1834631;-74
2024/04/10 00:28:30;;;;;;;;;10.50;10.50;;;;;10.70;60.94;102479.56;2164438;25;2789904;-73
2024/04/10 00:29:44;;;;;;;;;10.17;8.67;;;;;10.70;60.25;102471.69;2196305;25;1837122;-73
2024/04/10 00:30:56;;;;;;;;;13.50;12.00;;;;;10.71;60.15;102472.56;2165363;25;2815935;-73
2024/04/10 00:32:08;;;;;;;;;14.00;12.50;;;;;10.71;60.37;102477.81;2153050;25;2824258;-74
2024/04/10 00:33:19;;;;;;;;;15.50;14.50;;;;;10.69;59.62;102481.31;2152560;25;2826299;-74
2024/04/10 00:34:35;;;;;;;;;14.83;10.00;;;;;10.68;60.46;102474.34;2196881;25;1830447;-73
2024/04/10 00:35:57;;;;;;;;;18.50;12.00;;;;;10.70;60.27;102474.31;2182219;25;1861697;-73
2024/04/10 00:37:08;;;;;;;;;14.00;13.00;;;;;10.68;60.51;102476.97;2190920;25;2827335;-73
2024/04/10 00:38:22;;;;;;;;;10.17;10.17;;;;;10.68;60.77;102479.59;2196420;25;1836722;-73
2024/04/10 00:39:33;;;;;;;;;10.00;8.00;;;;;10.69;60.47;102483.09;2169705;25;2775222;-73
2024/04/10 00:40:52;;;;;;;;;9.50;9.50;;;;;10.69;60.78;102483.09;2197207;25;2778320;-74
2024/04/10 00:42:04;;;;;;;;;18.50;15.50;;;;;10.66;60.28;102476.09;2179560;25;1855522;-74
2024/04/10 00:43:17;;;;;;;;;7.00;7.00;;;;;10.64;60.87;102477.84;2191931;25;2748238;-74
2024/04/10 00:44:29;;;;;;;;;10.25;9.50;;;;;10.61;60.47;102471.75;2195801;25;1832548;-73
2024/04/10 00:45:41;;;;;;;;;15.00;13.00;;;;;10.62;60.79;102491.91;2190813;25;2824210;-73
2024/04/10 00:46:52;;;;;;;;;7.50;7.50;;;;;10.58;60.22;102478.75;2178415;25;2745016;-73
2024/04/10 00:48:07;;;;;;;;;10.33;6.50;;;;;10.61;60.31;102471.75;2238244;25;2744984;-73
2024/04/10 00:49:21;;;;;;;;;6.50;5.50;;;;;10.62;61.15;102468.25;2210873;25;2748205;-73
2024/04/10 00:50:34;;;;;;;;;8.17;6.17;;;;;10.62;61.21;102476.13;2224648;25;2726694;-74
2024/04/10 00:51:45;;;;;;;;;8.00;5.33;;;;;10.62;61.14;102473.50;2207153;25;3475171;-74
2024/04/10 00:52:59;;;;;;;;;6.17;4.67;;;;;10.62;61.08;102465.63;2222665;25;2745000;-73
2024/04/10 00:54:13;;;;;;;;;5.67;5.00;;;;;10.62;61.43;102463.84;2197918;25;2748153;-73
2024/04/10 00:55:28;;;;;;;;;3.83;3.17;;;;;10.63;61.17;102464.72;2195654;25;2750250;-73
2024/04/10 00:56:41;;;;;;;;;4.67;4.50;;;;;10.63;61.37;102470.84;2182944;25;2752338;-73
2024/04/10 00:57:55;;;;;;;;;7.33;5.00;;;;;10.64;60.92;102469.94;2210603;25;2748197;-73
2024/04/10 00:59:09;;;;;;;;;6.00;5.17;;;;;10.63;61.70;102468.22;2183503;25;2748133;-73
2024/04/10 01:00:23;;;;;;;;;3.17;3.17;;;;;10.62;61.97;102463.84;2197075;25;2749230;-73
2024/04/10 01:01:37;;;;;;;;;4.17;4.17;;;;;10.62;61.25;102463.84;2183099;25;2746049;-73
2024/04/10 01:02:50;;;;;;;;;5.33;4.00;;;;;10.63;61.18;102462.97;2184800;25;2742332;-73
2024/04/10 01:04:04;;;;;;;;;9.50;7.00;;;;;10.64;60.99;102469.09;2195238;25;2737750;-73
2024/04/10 01:05:18;;;;;;;;;5.17;5.00;;;;;10.60;60.86;102462.09;2196823;25;2732507;-73
2024/04/10 01:06:32;;;;;;;;;4.50;4.50;;;;;10.60;61.06;102464.72;2220313;25;2750274;-73
2024/04/10 01:07:46;;;;;;;;;5.17;5.17;;;;;10.59;60.37;102463.88;2222467;25;2748168;-73
2024/04/10 01:08:58;;;;;;;;;5.00;4.00;;;;;10.58;61.29;102459.47;2183819;25;3467922;-73
2024/04/10 01:10:12;;;;;;;;;8.00;5.00;;;;;10.58;61.62;102467.38;2222498;25;2750262;-74
2024/04/10 01:11:26;;;;;;;;;9.00;5.00;;;;;10.55;61.45;102465.63;2196106;25;2747102;-73
2024/04/10 01:12:43;;;;;;;;;6.67;5.33;;;;;10.57;61.08;102471.75;2196564;25;2741160;-73
2024/04/10 01:13:57;;;;;;;;;4.67;4.33;;;;;10.57;61.37;102471.75;2197418;25;2749183;-73
2024/04/10 01:15:11;;;;;;;;;3.33;2.33;;;;;10.57;61.75;102474.38;2198621;25;2742943;-73
2024/04/10 01:16:25;;;;;;;;;6.50;5.17;;;;;10.56;60.79;102469.13;2211246;25;2740842;-74
2024/04/10 01:17:39;;;;;;;;;4.17;4.00;;;;;10.56;61.30;102464.75;2237406;25;2746109;-74
2024/04/10 01:18:53;;;;;;;;;5.17;4.00;;;;;10.54;61.06;102466.50;2195383;25;2750254;-74
2024/04/10 01:20:07;;;;;;;;;10.00;3.00;;;;;10.55;61.54;102468.25;2168091;25;3508512;-74
2024/04/10 01:21:21;;;;;;;;;4.83;4.83;;;;;10.53;60.98;102463.88;2235463;25;2750223;-74
2024/04/10 01:22:36;;;;;;;;;6.33;4.83;;;;;10.53;61.54;102467.41;2210950;25;2740872;-74
2024/04/10 01:23:47;;;;;;;;;8.33;5.00;;;;;10.51;61.14;102463.91;2180932;25;3467282;-74
2024/04/10 01:24:58;;;;;;;;;6.00;4.67;;;;;10.53;61.23;102472.66;2209048;25;3463729;-74
2024/04/10 01:26:11;;;;;;;;;7.50;5.00;;;;;10.54;61.66;102471.75;2235985;25;2746047;-73
2024/04/10 01:27:25;;;;;;;;;7.17;3.50;;;;;10.54;61.46;102476.16;2237344;25;2746072;-73
2024/04/10 01:28:39;;;;;;;;;3.67;3.00;;;;;10.52;61.67;102476.16;2210474;25;2743227;-73
2024/04/10 01:29:53;;;;;;;;;7.33;4.00;;;;;10.51;61.55;102482.31;2195113;25;2754398;-73
2024/04/10 01:31:07;;;;;;;;;5.83;3.33;;;;;10.46;61.58;102484.03;2199919;25;2748117;-73
2024/04/10 01:32:21;;;;;;;;;4.83;4.17;;;;;10.45;61.38;102482.28;2210748;25;2742921;-73
2024/04/10 01:33:34;;;;;;;;;5.83;4.00;;;;;10.41;61.74;102483.19;2211615;25;2749186;-73
2024/04/10 01:34:48;;;;;;;;;5.83;2.33;;;;;10.41;62.04;102477.94;2238790;25;2735633;-73
2024/04/10 01:36:02;;;;;;;;;4.17;2.50;;;;;10.39;62.46;102474.44;2212458;25;2742313;-73
2024/04/10 01:37:16;;;;;;;;;4.33;2.17;;;;;10.41;61.93;102485.81;2213378;25;2735671;-73
2024/04/10 01:38:30;;;;;;;;;5.67;4.50;;;;;10.44;61.63;102485.81;2212074;25;2750228;-73
2024/04/10 01:39:44;;;;;;;;;3.67;1.83;;;;;10.44;61.49;102485.81;2239151;25;2744008;-73
2024/04/10 01:40:58;;;;;;;;;5.33;3.17;;;;;10.40;61.55;102490.19;2238468;25;2733572;-73
2024/04/10 01:42:12;;;;;;;;;6.83;5.00;;;;;10.45;61.28;102493.69;2195261;25;2748129;-73
2024/04/10 01:43:25;;;;;;;;;6.17;2.17;;;;;10.40;61.26;102491.94;2194814;25;2734589;-73
2024/04/10 01:44:39;;;;;;;;;4.00;4.00;;;;;10.41;61.93;102493.69;2194985;25;2746052;-73
2024/04/10 01:45:53;;;;;;;;;7.33;6.50;;;;;10.41;61.74;102496.34;2207058;25;2761753;-73
2024/04/10 01:47:07;;;;;;;;;5.67;2.83;;;;;10.41;61.88;102507.72;2221051;25;2735621;-73
2024/04/10 01:48:20;;;;;;;;;4.83;3.33;;;;;10.41;61.05;102512.09;2207422;25;2745008;-73
2024/04/10 01:49:34;;;;;;;;;6.17;3.83;;;;;10.40;61.52;102512.97;2236769;25;2745039;-73
2024/04/10 01:50:49;;;;;;;;;5.50;2.17;;;;;10.38;62.32;102512.09;2202230;25;2737723;-73
2024/04/10 01:52:00;;;;;;;;;7.67;5.33;;;;;10.33;61.57;102510.38;2168966;25;2753436;-73
2024/04/10 01:53:14;;;;;;;;;3.33;2.00;;;;;10.35;62.47;102518.25;2223654;25;2736704;-73
2024/04/10 01:54:27;;;;;;;;;4.67;3.00;;;;;10.33;61.76;102520.88;2221357;25;2752318;-73
2024/04/10 01:55:41;;;;;;;;;2.67;2.50;;;;;10.35;61.61;102526.13;2196323;25;2738753;-73
2024/04/10 01:56:55;;;;;;;;;6.33;4.50;;;;;10.34;61.89;102532.28;2198863;25;2752338;-73
2024/04/10 01:58:09;;;;;;;;;4.17;2.50;;;;;10.33;62.22;102527.91;2212096;25;2750236;-73
2024/04/10 01:59:22;;;;;;;;;3.67;3.67;;;;;10.32;62.17;102534.91;2209787;25;2754398;-73
2024/04/10 02:00:36;;;;;;;;;4.00;2.33;;;;;10.28;62.11;102530.53;2210454;25;2739818;-73
2024/04/10 02:01:50;;;;;;;;;3.00;2.67;;;;;10.29;61.89;102534.94;2210695;25;2741896;-73
2024/04/10 02:03:04;;;;;;;;;4.50;3.83;;;;;10.29;62.04;102534.06;2237177;25;2741922;-73
2024/04/10 02:04:18;;;;;;;;;2.83;2.33;;;;;10.26;61.82;102540.19;2237658;25;2743985;-73
2024/04/10 02:05:31;;;;;;;;;4.33;2.67;;;;;10.23;62.45;102538.44;2236850;25;2734583;-73
2024/04/10 02:06:45;;;;;;;;;4.33;4.00;;;;;10.21;61.76;102529.69;2213791;25;2740901;-73
2024/04/10 02:07:59;;;;;;;;;7.17;3.67;;;;;10.20;61.88;102540.19;2182485;25;2748172;-74
2024/04/10 02:09:13;;;;;;;;;4.67;2.67;;;;;10.19;62.10;102541.97;2196317;25;2737800;-73
2024/04/10 02:10:26;;;;;;;;;6.17;2.50;;;;;10.19;62.05;102536.72;2196280;25;2741918;-73
2024/04/10 02:11:40;;;;;;;;;5.33;3.67;;;;;10.18;62.14;102547.19;2203415;25;2747544;-73
2024/04/10 02:12:54;;;;;;;;;5.17;3.33;;;;;10.15;62.93;102544.59;2213518;25;2736715;-73
2024/04/10 02:14:08;;;;;;;;;6.00;4.50;;;;;10.16;62.14;102551.59;2211116;25;2752302;-73
2024/04/10 02:15:22;;;;;;;;;10.67;8.00;;;;;10.14;62.59;102546.34;2237854;25;2754355;-73
2024/04/10 02:16:35;;;;;;;;;10.33;5.50;;;;;10.10;62.51;102542.84;2211779;25;2748188;-73
2024/04/10 02:17:49;;;;;;;;;5.50;4.67;;;;;10.15;62.49;102547.22;2233366;25;2734572;-73
2024/04/10 02:19:03;;;;;;;;;8.17;5.67;;;;;10.15;62.77;102544.59;2195708;25;2746030;-73
2024/04/10 02:20:16;;;;;;;;;15.67;15.33;;;;;10.14;62.29;102543.72;2193246;25;3558819;-73
2024/04/10 02:21:30;;;;;;;;;9.00;8.50;;;;;10.18;62.82;102547.19;2223780;25;2747076;-73
2024/04/10 02:22:44;;;;;;;;;9.67;7.17;;;;;10.18;62.87;102548.09;2196912;25;2751269;-73
2024/04/10 02:23:58;;;;;;;;;10.67;10.67;;;;;10.19;62.69;102549.84;2196879;25;2763824;-73
2024/04/10 02:25:11;;;;;;;;;9.83;7.33;;;;;10.17;62.33;102555.97;2198429;25;2748113;-73
2024/04/10 02:26:22;;;;;;;;;15.00;11.67;;;;;10.17;62.17;102556.88;2168041;25;3531478;-73
2024/04/10 02:27:33;;;;;;;;;14.33;10.33;;;;;10.18;62.20;102560.34;2201638;25;3530420;-73
2024/04/10 02:28:44;;;;;;;;;11.33;10.00;;;;;10.15;62.47;102553.34;2204192;25;2791949;-73
2024/04/10 02:29:58;;;;;;;;;13.17;13.17;;;;;10.15;63.29;102557.75;2237921;25;2784577;-73
2024/04/10 02:31:12;;;;;;;;;8.17;8.17;;;;;10.15;62.73;102552.50;2213155;25;2750223;-73
2024/04/10 02:32:23;;;;;;;;;12.33;11.00;;;;;10.17;62.85;102555.97;2181401;25;3534838;-73
2024/04/10 02:33:38;;;;;;;;;15.67;10.67;;;;;10.14;62.34;102554.25;2208109;25;3527591;-73
2024/04/10 02:34:49;;;;;;;;;12.67;12.00;;;;;10.08;62.24;102552.47;2208148;25;3551229;-73
2024/04/10 02:36:03;;;;;;;;;11.67;10.33;;;;;10.07;62.73;102561.25;2233993;25;2766139;-73
2024/04/10 02:37:14;;;;;;;;;14.00;9.00;;;;;10.06;63.19;102553.38;2183243;25;2785665;-73
2024/04/10 02:38:27;;;;;;;;;10.33;10.00;;;;;10.07;63.15;102563.88;2192643;25;2782541;-73
2024/04/10 02:39:41;;;;;;;;;12.50;10.50;;;;;10.08;63.21;102563.00;2208264;25;2769453;-73
2024/04/10 02:40:52;;;;;;;;;12.00;9.67;;;;;10.09;62.52;102566.50;2169216;25;2788830;-73
2024/04/10 02:42:06;;;;;;;;;11.67;10.33;;;;;10.07;63.09;102561.25;2222851;25;2764825;-73
2024/04/10 02:43:17;;;;;;;;;13.00;12.00;;;;;10.10;62.78;102557.75;2165398;25;3546017;-73
2024/04/10 02:44:28;;;;;;;;;11.00;8.67;;;;;10.11;62.45;102570.88;2193304;25;2781470;-73
2024/04/10 02:45:39;;;;;;;;;10.00;8.00;;;;;10.11;62.77;102560.38;2194511;25;2775207;-73
2024/04/10 02:46:50;;;;;;;;;9.67;9.00;;;;;10.14;63.12;102562.13;2194205;25;2766881;-73
2024/04/10 02:48:04;;;;;;;;;6.67;6.67;;;;;10.10;63.14;102566.50;2237000;25;2752267;-73
2024/04/10 02:49:15;;;;;;;;;11.67;11.00;;;;;10.11;62.76;102568.25;2208005;25;3547082;-73
2024/04/10 02:50:26;;;;;;;;;12.00;12.00;;;;;10.10;63.05;102565.63;2202069;25;3557486;-73
2024/04/10 02:51:37;;;;;;;;;12.67;10.67;;;;;10.12;62.90;102575.25;2190525;25;3514769;-73
2024/04/10 02:52:51;;;;;;;;;8.17;8.17;;;;;10.10;63.33;102569.13;2210703;25;2751282;-73
2024/04/10 02:54:03;;;;;;;;;11.67;10.67;;;;;10.10;63.14;102565.63;2165406;25;2778549;-73
2024/04/10 02:55:16;;;;;;;;;8.17;6.00;;;;;10.10;63.11;102568.25;2222339;25;2759622;-73
2024/04/10 02:56:30;;;;;;;;;9.67;8.83;;;;;10.09;63.15;102567.38;2220559;25;2769998;-73
2024/04/10 02:57:41;;;;;;;;;15.00;12.67;;;;;10.07;62.30;102569.16;2164407;25;3550180;-73
2024/04/10 02:58:52;;;;;;;;;10.33;9.33;;;;;10.05;63.16;102567.38;2191182;25;2784574;-73
2024/04/10 03:00:03;;;;;;;;;10.00;8.67;;;;;10.04;62.89;102565.63;2194262;25;2780467;-73
2024/04/10 03:01:17;;;;;;;;;8.67;8.67;;;;;10.02;62.99;102565.63;2223320;25;2760731;-73
2024/04/10 03:02:32;;;;;;;;;6.83;6.00;;;;;10.04;62.83;102563.88;2196496;25;2756454;-73
2024/04/10 03:03:44;;;;;;;;;12.50;8.50;;;;;10.06;63.31;102558.63;2208343;25;1855408;-73
2024/04/10 03:04:55;;;;;;;;;9.67;6.00;;;;;10.08;63.14;102562.09;2193452;25;2768981;-73
2024/04/10 03:06:08;;;;;;;;;10.00;7.00;;;;;10.08;63.09;102570.00;2194265;25;2778344;-73
2024/04/10 03:07:21;;;;;;;;;9.00;7.83;;;;;10.09;63.27;102569.13;2234551;25;2763741;-73
2024/04/10 03:08:33;;;;;;;;;13.67;11.67;;;;;10.07;63.12;102574.41;2179511;25;3527690;-73
2024/04/10 03:09:44;;;;;;;;;7.00;7.00;;;;;10.02;63.68;102574.38;2193353;25;3472117;-73
2024/04/10 03:10:55;;;;;;;;;7.67;7.67;;;;;10.02;63.25;102584.03;2195632;25;2754445;-73
2024/04/10 03:12:10;;;;;;;;;8.17;8.17;;;;;10.02;63.01;102581.41;2235532;25;2763001;-73
2024/04/10 03:13:21;;;;;;;;;11.67;8.33;;;;;10.00;63.10;102583.16;2182934;25;3496033;-73
2024/04/10 03:14:37;;;;;;;;;6.67;6.67;;;;;9.98;63.52;102580.53;2235582;25;2761940;-73
2024/04/10 03:15:49;;;;;;;;;11.67;5.33;;;;;10.00;63.49;102578.75;2191934;25;3510598;-73
2024/04/10 03:17:03;;;;;;;;;6.00;5.67;;;;;9.99;62.73;102584.03;2209870;25;2752574;-73
2024/04/10 03:18:14;;;;;;;;;8.67;6.67;;;;;10.02;63.63;102589.28;2194925;25;3474185;-73
2024/04/10 03:19:29;;;;;;;;;5.83;4.33;;;;;10.00;63.42;102580.53;2238552;25;2742951;-73
2024/04/10 03:20:39;;;;;;;;;8.33;6.67;;;;;10.01;63.68;102584.91;2207504;25;2754438;-73
2024/04/10 03:21:53;;;;;;;;;5.67;4.67;;;;;10.04;63.26;102584.03;2239003;25;2730420;-73
2024/04/10 03:23:04;;;;;;;;;9.33;7.67;;;;;10.04;63.48;102587.53;2208953;25;2759881;-73
2024/04/10 03:24:18;;;;;;;;;7.67;5.33;;;;;10.04;63.28;102592.78;2239565;25;2743982;-73
2024/04/10 03:25:33;;;;;;;;;7.67;6.33;;;;;10.02;62.88;102590.13;2238763;25;2756461;-73
2024/04/10 03:26:47;;;;;;;;;5.50;5.50;;;;;10.03;63.83;102588.38;2238210;25;2743995;-73
2024/04/10 03:27:58;;;;;;;;;5.67;5.00;;;;;10.02;63.26;102584.03;2208392;25;2743977;-74
2024/04/10 03:29:09;;;;;;;;;9.33;7.00;;;;;10.02;63.47;102584.88;2208158;25;2763808;-73
2024/04/10 03:30:23;;;;;;;;;9.17;6.33;;;;;10.03;63.14;102593.66;2236690;25;2764011;-73
2024/04/10 03:31:34;;;;;;;;;8.67;6.67;;;;;10.03;63.72;102598.91;2191041;25;3472103;-73
2024/04/10 03:32:45;;;;;;;;;11.33;8.33;;;;;10.05;63.34;102597.16;2188257;25;3504365;-73
2024/04/10 03:33:56;;;;;;;;;7.67;6.67;;;;;10.05;63.49;102607.66;2207557;25;2761697;-73
2024/04/10 03:35:09;;;;;;;;;5.67;5.50;;;;;10.05;63.57;102601.53;2222043;25;2756517;-73
2024/04/10 03:36:24;;;;;;;;;5.67;5.67;;;;;10.05;63.63;102604.19;2208616;25;2747083;-73
2024/04/10 03:37:38;;;;;;;;;5.17;4.50;;;;;10.04;63.62;102605.03;2210232;25;2750255;-73
2024/04/10 03:38:52;;;;;;;;;7.67;6.50;;;;;10.03;63.16;102606.78;2223905;25;2743958;-73
2024/04/10 03:40:03;;;;;;;;;8.67;7.67;;;;;10.04;63.57;102605.91;2205452;25;2752318;-73
2024/04/10 03:41:17;;;;;;;;;6.00;4.00;;;;;10.05;62.98;102607.66;2234734;25;2747124;-73
2024/04/10 03:42:32;;;;;;;;;5.17;5.17;;;;;10.04;63.46;102602.41;2223074;25;2746038;-73
2024/04/10 03:43:46;;;;;;;;;5.50;4.33;;;;;10.02;63.74;102605.91;2223550;25;2749626;-73
2024/04/10 03:45:00;;;;;;;;;4.00;3.50;;;;;10.03;63.64;102596.28;2223889;25;2748149;-73
2024/04/10 03:46:14;;;;;;;;;7.67;5.00;;;;;10.05;64.25;102605.03;2221566;25;2750204;-73
2024/04/10 03:47:28;;;;;;;;;6.33;5.17;;;;;10.05;64.12;102604.19;2224150;25;2747658;-73
2024/04/10 03:48:39;;;;;;;;;8.00;6.33;;;;;10.09;63.60;102605.91;2198479;25;2746104;-73
2024/04/10 03:49:50;;;;;;;;;7.67;5.00;;;;;10.09;63.32;102606.78;2192526;25;2748121;-73
2024/04/10 03:51:01;;;;;;;;;8.00;8.00;;;;;10.10;63.35;102612.94;2179130;25;3476217;-73
2024/04/10 03:52:12;;;;;;;;;8.00;8.00;;;;;10.10;62.96;102619.03;2194752;25;2755486;-73
2024/04/10 03:53:23;;;;;;;;;9.00;7.00;;;;;10.11;63.39;102625.19;2205237;25;3494951;-73
2024/04/10 03:54:34;;;;;;;;;5.67;3.67;;;;;10.08;63.70;102626.06;2191212;25;3460597;-73
2024/04/10 03:55:45;;;;;;;;;6.00;5.67;;;;;10.09;63.41;102626.94;2192516;25;3464188;-73
2024/04/10 03:56:58;;;;;;;;;4.83;4.17;;;;;10.07;63.50;102632.19;2224085;25;2746057;-73
2024/04/10 03:58:09;;;;;;;;;6.33;6.33;;;;;10.04;64.35;102628.69;2206315;25;3457539;-73
2024/04/10 03:59:22;;;;;;;;;8.33;5.00;;;;;10.05;63.84;102628.66;2208221;25;3468914;-73
2024/04/10 04:00:34;;;;;;;;;8.00;7.00;;;;;10.08;63.78;102636.56;2206644;25;3461626;-73
2024/04/10 04:01:45;;;;;;;;;4.00;4.00;;;;;10.06;63.22;102640.06;2207696;25;3459574;-73
2024/04/10 04:02:56;;;;;;;;;5.67;3.67;;;;;10.04;63.68;102626.06;2210423;25;1826313;-73
2024/04/10 04:04:08;;;;;;;;;7.00;5.67;;;;;10.06;64.00;102634.81;2185868;25;1841852;-73
2024/04/10 04:05:22;;;;;;;;;4.50;4.50;;;;;10.01;63.79;102634.81;2198435;25;2742912;-73
2024/04/10 04:06:35;;;;;;;;;4.83;4.50;;;;;10.03;64.21;102638.31;2221871;25;2750192;-73
2024/04/10 04:07:46;;;;;;;;;11.33;7.67;;;;;10.02;64.47;102639.19;2192130;25;3502285;-73
2024/04/10 04:09:00;;;;;;;;;5.00;4.00;;;;;10.03;63.84;102643.56;2230850;25;2744235;-73
2024/04/10 04:10:14;;;;;;;;;8.17;5.17;;;;;10.03;64.09;102638.31;2223018;25;2754362;-73
2024/04/10 04:11:28;;;;;;;;;5.50;4.67;;;;;10.01;63.89;102635.69;2223254;25;2739779;-73
2024/04/10 04:12:42;;;;;;;;;8.00;7.83;;;;;10.04;64.58;102639.19;2223179;25;2749186;-73
2024/04/10 04:13:56;;;;;;;;;7.83;7.33;;;;;10.02;63.71;102637.44;2198018;25;2737712;-73
2024/04/10 04:15:10;;;;;;;;;10.00;10.00;;;;;10.02;64.47;102641.84;2212097;25;2764846;-73
2024/04/10 04:16:24;;;;;;;;;8.00;7.83;;;;;10.02;64.45;102642.69;2212827;25;2742925;-73
2024/04/10 04:17:38;;;;;;;;;6.50;6.00;;;;;10.03;63.86;102648.81;2212112;25;2752317;-73
2024/04/10 04:18:53;;;;;;;;;12.00;8.67;;;;;10.01;64.31;102654.09;2211133;25;2767916;-73
2024/04/10 04:20:09;;;;;;;;;10.17;8.83;;;;;9.99;64.73;102649.69;2196705;25;2761666;-73
2024/04/10 04:21:24;;;;;;;;;13.50;9.67;;;;;10.02;64.24;102660.22;2197892;25;2774194;-73
2024/04/10 04:22:38;;;;;;;;;10.50;8.67;;;;;9.99;64.17;102661.09;2199248;25;2762696;-73
2024/04/10 04:23:53;;;;;;;;;6.83;5.33;;;;;10.00;64.25;102661.97;2198321;25;2729670;-73
2024/04/10 04:25:06;;;;;;;;;7.33;6.33;;;;;9.98;63.81;102667.22;2223851;25;2739796;-73
2024/04/10 04:26:20;;;;;;;;;13.17;10.17;;;;;9.97;65.12;102667.22;2221573;25;2771101;-73
2024/04/10 04:27:34;;;;;;;;;7.17;7.17;;;;;9.97;64.29;102669.84;2196065;25;2749158;-73
2024/04/10 04:28:49;;;;;;;;;9.00;6.83;;;;;9.97;64.43;102677.72;2212200;25;2746059;-73
2024/04/10 04:30:03;;;;;;;;;11.50;9.33;;;;;9.90;64.12;102679.47;2212295;25;2755436;-72
2024/04/10 04:31:14;;;;;;;;;10.00;9.67;;;;;9.93;64.70;102678.56;2182974;25;3510613;-72
2024/04/10 04:32:25;;;;;;;;;10.00;8.67;;;;;9.91;64.76;102675.97;2204355;25;2764856;-72
2024/04/10 04:33:39;;;;;;;;;11.67;9.17;;;;;9.92;64.50;102676.84;2236123;25;2772631;-72
2024/04/10 04:34:50;;;;;;;;;11.00;9.67;;;;;9.90;64.33;102679.47;2178226;25;2796131;-72
2024/04/10 04:36:02;;;;;;;;;12.33;9.33;;;;;9.90;64.90;102687.34;2198844;25;3501236;-72
2024/04/10 04:37:13;;;;;;;;;12.67;10.33;;;;;9.88;64.77;102676.81;2202965;25;3524163;-72
2024/04/10 04:38:24;;;;;;;;;12.67;10.67;;;;;9.85;64.93;102682.06;2206641;25;2791923;-72
2024/04/10 04:39:35;;;;;;;;;11.67;11.33;;;;;9.86;64.40;102685.59;2190854;25;3536639;-72
2024/04/10 04:40:46;;;;;;;;;11.33;11.33;;;;;9.85;64.39;102679.44;2177670;25;2796558;-72
2024/04/10 04:41:57;;;;;;;;;10.00;10.00;;;;;9.83;64.50;102680.34;2177252;25;2776296;-72
2024/04/10 04:43:08;;;;;;;;;9.67;9.67;;;;;9.82;64.92;102682.09;2192479;25;2785648;-72
2024/04/10 04:44:22;;;;;;;;;10.33;10.00;;;;;9.79;65.11;102682.97;2222814;25;2782542;-72
2024/04/10 04:45:40;;;;;;;;;9.33;9.33;;;;;9.77;64.86;102678.56;2196007;25;2757502;-72
2024/04/10 04:46:51;;;;;;;;;13.00;12.67;;;;;9.76;64.28;102682.94;2167436;25;3552281;-72
2024/04/10 04:48:02;;;;;;;;;12.67;11.00;;;;;9.76;64.47;102685.56;2180316;25;3540841;-72
2024/04/10 04:49:13;;;;;;;;;12.00;11.67;;;;;9.71;65.15;102675.91;2191082;25;3539817;-72
2024/04/10 04:50:24;;;;;;;;;12.67;10.67;;;;;9.70;64.63;102680.31;2191807;25;3531529;-72
2024/04/10 04:51:35;;;;;;;;;11.00;11.00;;;;;9.68;65.00;102679.41;2207400;25;3523122;-72
2024/04/10 04:52:46;;;;;;;;;12.33;10.00;;;;;9.66;64.65;102687.31;2195916;25;3509581;-72
2024/04/10 04:54:00;;;;;;;;;8.67;8.67;;;;;9.64;64.65;102683.81;2221994;25;2757538;-72
2024/04/10 04:55:11;;;;;;;;;11.67;9.67;;;;;9.64;64.25;102694.31;2192162;25;2772124;-72
2024/04/10 04:56:22;;;;;;;;;9.00;8.33;;;;;9.59;64.41;102685.53;2193896;25;2760628;-72
2024/04/10 04:57:34;;;;;;;;;9.67;8.00;;;;;9.60;65.26;102696.91;2192262;25;2770066;-72
2024/04/10 04:58:47;;;;;;;;;9.00;7.00;;;;;9.54;65.01;102689.88;2223483;25;2755412;-72
2024/04/10 05:00:11;;;;;;;;;7.50;7.00;;;;;9.52;64.70;102691.63;2195149;25;2751295;-72
2024/04/10 05:01:25;;;;;;;;;5.83;5.17;;;;;9.53;65.46;102693.41;2213338;25;2747107;-72
2024/04/10 05:02:39;;;;;;;;;8.00;8.00;;;;;9.47;65.75;102683.75;2221781;25;2743942;-72
2024/04/10 05:05:24;;;;;;;;;7.50;7.50;;;;;9.47;65.06;102694.25;2223330;25;2743957;-72
2024/04/10 05:06:38;;;;;;;;;10.33;9.33;;;;;9.44;65.43;102697.75;2221804;25;2757519;-72
2024/04/10 05:07:52;;;;;;;;;12.67;12.00;;;;;9.43;65.44;102703.84;2195403;25;2776301;-72
2024/04/10 05:09:09;;;;;;;;;13.67;12.33;;;;;9.43;64.88;102700.38;2151722;26;3533562;-71
2024/04/10 05:10:23;;;;;;;;;11.67;9.50;;;;;9.43;65.39;102711.72;2213599;25;2765970;-72
2024/04/10 05:11:37;;;;;;;;;11.83;11.00;;;;;9.41;65.19;102712.59;2187652;25;2758557;-72
2024/04/10 05:12:51;;;;;;;;;14.33;11.17;;;;;9.39;65.87;102709.09;2206520;25;2781481;-72
2024/04/10 05:14:05;;;;;;;;;11.00;9.50;;;;;9.37;65.49;102711.72;2199531;25;2768966;-72
2024/04/10 05:15:19;;;;;;;;;12.00;10.50;;;;;9.36;65.60;102709.94;2189552;25;2772134;-72
2024/04/10 05:16:33;;;;;;;;;10.00;10.00;;;;;9.38;65.88;102720.47;2182320;26;2767943;-72
2024/04/10 05:17:48;;;;;;;;;10.33;9.33;;;;;9.38;65.17;102723.97;2163821;25;2782536;-72
2024/04/10 05:19:04;;;;;;;;;10.00;6.67;;;;;9.36;65.58;102712.56;2202193;25;2782829;-72
2024/04/10 05:20:18;;;;;;;;;7.83;6.33;;;;;9.34;65.59;102707.34;2222031;25;2751309;-72
2024/04/10 05:21:32;;;;;;;;;5.33;5.00;;;;;9.38;65.87;102716.09;2224644;25;2737736;-72
2024/04/10 05:22:43;;;;;;;;;7.00;6.33;;;;;9.38;65.66;102723.97;2209471;25;2750281;-72
2024/04/10 05:23:57;;;;;;;;;7.50;6.00;;;;;9.36;65.76;102717.81;2237681;25;2742905;-72
2024/04/10 05:25:11;;;;;;;;;9.33;6.33;;;;;9.36;66.56;102724.84;2206810;25;2753430;-72
2024/04/10 05:26:25;;;;;;;;;7.33;5.33;;;;;9.34;66.44;102723.06;2226578;25;2740847;-72
2024/04/10 05:27:41;;;;;;;;;4.67;3.67;;;;;9.36;66.23;102727.47;2236178;25;2746080;-72
2024/04/10 05:28:55;;;;;;;;;6.00;4.50;;;;;9.34;66.65;102727.44;2197282;25;2750240;-72
2024/04/10 05:30:09;;;;;;;;;6.17;4.50;;;;;9.35;66.18;102734.47;2226513;25;2742921;-72
2024/04/10 05:31:20;;;;;;;;;5.67;4.67;;;;;9.33;65.79;102728.34;2168939;25;2748157;-72
2024/04/10 05:32:38;;;;;;;;;5.00;4.67;;;;;9.35;65.51;102744.97;2208510;25;2743947;-72